sensor_id;sensor_type;location;lat;lon;timestamp;P1;durP1;ratioP1;P2;durP2;ratioP2
20697;SDS011;10508;50.956;4.640;2024-01-15T00:02:20;25.38;;;9.45;;
20697;SDS011;10508;50.956;4.640;2024-01-15T00:04:46;32.80;;;10.32;;
20697;SDS011;10508;50.956;4.640;2024-01-15T00:07:11;28.33;;;10.57;;
20697;SDS011;10508;50.956;4.640;2024-01-15T00:09:37;24.27;;;10.07;;
20697;SDS011;10508;50.956;4.640;2024-01-15T00:12:03;34.53;;;10.90;;
20697;SDS011;10508;50.956;4.640;2024-01-15T00:14:29;33.70;;;10.07;;
20697;SDS011;10508;50.956;4.640;2024-01-15T00:16:55;23.63;;;9.80;;
20697;SDS011;10508;50.956;4.640;2024-01-15T00:19:21;27.55;;;10.25;;
20697;SDS011;10508;50.956;4.640;2024-01-15T00:21:47;32.70;;;9.85;;
20697;SDS011;10508;50.956;4.640;2024-01-15T00:24:13;34.53;;;10.30;;
20697;SDS011;10508;50.956;4.640;2024-01-15T00:26:39;33.15;;;9.18;;
20697;SDS011;10508;50.956;4.640;2024-01-15T00:29:06;30.60;;;9.32;;
20697;SDS011;10508;50.956;4.640;2024-01-15T00:31:33;23.45;;;9.25;;
20697;SDS011;10508;50.956;4.640;2024-01-15T00:33:58;21.58;;;8.52;;
20697;SDS011;10508;50.956;4.640;2024-01-15T00:36:24;27.10;;;9.18;;
20697;SDS011;10508;50.956;4.640;2024-01-15T00:38:50;25.58;;;8.73;;
20697;SDS011;10508;50.956;4.640;2024-01-15T00:41:17;21.25;;;7.57;;
20697;SDS011;10508;50.956;4.640;2024-01-15T00:43:44;25.10;;;9.18;;
20697;SDS011;10508;50.956;4.640;2024-01-15T00:46:10;34.00;;;9.40;;
20697;SDS011;10508;50.956;4.640;2024-01-15T00:48:36;23.92;;;8.25;;
20697;SDS011;10508;50.956;4.640;2024-01-15T00:51:01;23.10;;;8.07;;
20697;SDS011;10508;50.956;4.640;2024-01-15T00:53:46;24.60;;;8.10;;
20697;SDS011;10508;50.956;4.640;2024-01-15T00:56:12;20.00;;;7.72;;
20697;SDS011;10508;50.956;4.640;2024-01-15T00:58:37;22.73;;;8.20;;
20697;SDS011;10508;50.956;4.640;2024-01-15T01:01:03;19.92;;;7.05;;
20697;SDS011;10508;50.956;4.640;2024-01-15T01:03:29;16.50;;;7.15;;
20697;SDS011;10508;50.956;4.640;2024-01-15T01:05:55;26.25;;;7.07;;
20697;SDS011;10508;50.956;4.640;2024-01-15T01:08:20;17.02;;;7.05;;
20697;SDS011;10508;50.956;4.640;2024-01-15T01:10:46;19.23;;;6.75;;
20697;SDS011;10508;50.956;4.640;2024-01-15T01:13:12;15.30;;;6.05;;
20697;SDS011;10508;50.956;4.640;2024-01-15T01:15:37;19.88;;;6.65;;
20697;SDS011;10508;50.956;4.640;2024-01-15T01:18:03;21.60;;;6.70;;
20697;SDS011;10508;50.956;4.640;2024-01-15T01:20:30;16.23;;;6.35;;
20697;SDS011;10508;50.956;4.640;2024-01-15T01:22:55;15.68;;;6.38;;
20697;SDS011;10508;50.956;4.640;2024-01-15T01:25:21;14.30;;;6.22;;
20697;SDS011;10508;50.956;4.640;2024-01-15T01:27:47;13.25;;;6.30;;
20697;SDS011;10508;50.956;4.640;2024-01-15T01:30:12;18.33;;;6.85;;
20697;SDS011;10508;50.956;4.640;2024-01-15T01:32:38;17.17;;;6.60;;
20697;SDS011;10508;50.956;4.640;2024-01-15T01:35:04;16.15;;;6.55;;
20697;SDS011;10508;50.956;4.640;2024-01-15T01:37:30;15.93;;;6.57;;
20697;SDS011;10508;50.956;4.640;2024-01-15T01:39:56;14.25;;;6.30;;
20697;SDS011;10508;50.956;4.640;2024-01-15T01:42:21;16.13;;;6.50;;
20697;SDS011;10508;50.956;4.640;2024-01-15T01:44:47;15.40;;;5.78;;
20697;SDS011;10508;50.956;4.640;2024-01-15T01:47:13;14.05;;;5.22;;
20697;SDS011;10508;50.956;4.640;2024-01-15T01:49:40;12.25;;;5.20;;
20697;SDS011;10508;50.956;4.640;2024-01-15T01:52:06;12.15;;;5.22;;
20697;SDS011;10508;50.956;4.640;2024-01-15T01:54:34;14.80;;;6.18;;
20697;SDS011;10508;50.956;4.640;2024-01-15T01:57:02;16.73;;;6.30;;
20697;SDS011;10508;50.956;4.640;2024-01-15T01:59:28;13.77;;;5.40;;
20697;SDS011;10508;50.956;4.640;2024-01-15T02:01:55;10.77;;;4.55;;
20697;SDS011;10508;50.956;4.640;2024-01-15T02:04:24;12.43;;;5.43;;
20697;SDS011;10508;50.956;4.640;2024-01-15T02:06:51;13.77;;;5.25;;
20697;SDS011;10508;50.956;4.640;2024-01-15T02:09:17;15.45;;;5.30;;
20697;SDS011;10508;50.956;4.640;2024-01-15T02:11:43;14.48;;;5.20;;
20697;SDS011;10508;50.956;4.640;2024-01-15T02:14:12;9.02;;;4.85;;
20697;SDS011;10508;50.956;4.640;2024-01-15T02:16:37;13.80;;;5.40;;
20697;SDS011;10508;50.956;4.640;2024-01-15T02:19:03;14.05;;;4.90;;
20697;SDS011;10508;50.956;4.640;2024-01-15T02:21:29;14.93;;;5.47;;
20697;SDS011;10508;50.956;4.640;2024-01-15T02:23:56;13.30;;;4.80;;
20697;SDS011;10508;50.956;4.640;2024-01-15T02:26:23;6.82;;;3.88;;
20697;SDS011;10508;50.956;4.640;2024-01-15T02:28:48;12.13;;;3.78;;
20697;SDS011;10508;50.956;4.640;2024-01-15T02:31:16;8.35;;;3.67;;
20697;SDS011;10508;50.956;4.640;2024-01-15T02:33:42;9.55;;;3.78;;
20697;SDS011;10508;50.956;4.640;2024-01-15T02:36:09;6.18;;;3.28;;
20697;SDS011;10508;50.956;4.640;2024-01-15T02:38:35;6.32;;;2.80;;
20697;SDS011;10508;50.956;4.640;2024-01-15T02:41:01;6.65;;;2.80;;
20697;SDS011;10508;50.956;4.640;2024-01-15T02:43:26;9.52;;;3.13;;
20697;SDS011;10508;50.956;4.640;2024-01-15T02:45:52;9.43;;;3.83;;
20697;SDS011;10508;50.956;4.640;2024-01-15T02:48:18;4.88;;;2.72;;
20697;SDS011;10508;50.956;4.640;2024-01-15T02:50:43;9.40;;;2.70;;
20697;SDS011;10508;50.956;4.640;2024-01-15T02:53:09;6.75;;;2.72;;
20697;SDS011;10508;50.956;4.640;2024-01-15T02:55:35;6.95;;;3.05;;
20697;SDS011;10508;50.956;4.640;2024-01-15T02:58:00;6.78;;;3.03;;
20697;SDS011;10508;50.956;4.640;2024-01-15T03:00:26;8.07;;;3.20;;
20697;SDS011;10508;50.956;4.640;2024-01-15T03:02:52;11.48;;;3.38;;
20697;SDS011;10508;50.956;4.640;2024-01-15T03:05:17;6.88;;;3.35;;
20697;SDS011;10508;50.956;4.640;2024-01-15T03:07:43;7.45;;;3.20;;
20697;SDS011;10508;50.956;4.640;2024-01-15T03:10:09;7.47;;;2.67;;
20697;SDS011;10508;50.956;4.640;2024-01-15T03:12:35;7.28;;;2.83;;
20697;SDS011;10508;50.956;4.640;2024-01-15T03:15:01;7.40;;;3.10;;
20697;SDS011;10508;50.956;4.640;2024-01-15T03:17:26;6.85;;;3.08;;
20697;SDS011;10508;50.956;4.640;2024-01-15T03:19:52;7.32;;;2.67;;
20697;SDS011;10508;50.956;4.640;2024-01-15T03:22:18;5.05;;;2.72;;
20697;SDS011;10508;50.956;4.640;2024-01-15T03:24:44;6.93;;;2.30;;
20697;SDS011;10508;50.956;4.640;2024-01-15T03:27:10;7.15;;;2.63;;
20697;SDS011;10508;50.956;4.640;2024-01-15T03:29:35;6.88;;;2.60;;
20697;SDS011;10508;50.956;4.640;2024-01-15T03:32:01;9.35;;;2.92;;
20697;SDS011;10508;50.956;4.640;2024-01-15T03:34:27;4.25;;;2.33;;
20697;SDS011;10508;50.956;4.640;2024-01-15T03:36:52;6.40;;;2.40;;
20697;SDS011;10508;50.956;4.640;2024-01-15T03:39:18;6.53;;;2.83;;
20697;SDS011;10508;50.956;4.640;2024-01-15T03:41:44;4.97;;;2.78;;
20697;SDS011;10508;50.956;4.640;2024-01-15T03:44:10;5.68;;;2.60;;
20697;SDS011;10508;50.956;4.640;2024-01-15T03:46:35;10.32;;;2.33;;
20697;SDS011;10508;50.956;4.640;2024-01-15T03:49:01;5.97;;;2.72;;
20697;SDS011;10508;50.956;4.640;2024-01-15T03:51:27;6.07;;;2.58;;
20697;SDS011;10508;50.956;4.640;2024-01-15T03:53:52;7.55;;;2.67;;
20697;SDS011;10508;50.956;4.640;2024-01-15T03:56:24;6.13;;;2.80;;
20697;SDS011;10508;50.956;4.640;2024-01-15T03:58:49;4.97;;;2.83;;
20697;SDS011;10508;50.956;4.640;2024-01-15T04:01:15;8.95;;;3.00;;
20697;SDS011;10508;50.956;4.640;2024-01-15T04:03:41;8.02;;;3.08;;
20697;SDS011;10508;50.956;4.640;2024-01-15T04:06:06;6.63;;;3.45;;
20697;SDS011;10508;50.956;4.640;2024-01-15T04:08:32;7.95;;;3.22;;
20697;SDS011;10508;50.956;4.640;2024-01-15T04:10:58;8.13;;;3.85;;
20697;SDS011;10508;50.956;4.640;2024-01-15T04:13:23;8.25;;;3.58;;
20697;SDS011;10508;50.956;4.640;2024-01-15T04:15:49;7.30;;;3.80;;
20697;SDS011;10508;50.956;4.640;2024-01-15T04:18:15;8.43;;;4.55;;
20697;SDS011;10508;50.956;4.640;2024-01-15T04:20:41;11.95;;;5.13;;
20697;SDS011;10508;50.956;4.640;2024-01-15T04:23:07;13.35;;;5.75;;
20697;SDS011;10508;50.956;4.640;2024-01-15T04:25:33;13.20;;;5.70;;
20697;SDS011;10508;50.956;4.640;2024-01-15T04:27:58;13.70;;;5.53;;
20697;SDS011;10508;50.956;4.640;2024-01-15T04:30:24;16.00;;;5.88;;
20697;SDS011;10508;50.956;4.640;2024-01-15T04:32:50;19.73;;;7.00;;
20697;SDS011;10508;50.956;4.640;2024-01-15T04:35:15;16.75;;;6.75;;
20697;SDS011;10508;50.956;4.640;2024-01-15T04:37:41;14.95;;;5.25;;
20697;SDS011;10508;50.956;4.640;2024-01-15T04:40:07;12.85;;;5.50;;
20697;SDS011;10508;50.956;4.640;2024-01-15T04:42:33;15.60;;;6.90;;
20697;SDS011;10508;50.956;4.640;2024-01-15T04:44:59;15.32;;;7.25;;
20697;SDS011;10508;50.956;4.640;2024-01-15T04:47:25;12.95;;;6.53;;
20697;SDS011;10508;50.956;4.640;2024-01-15T04:49:50;15.68;;;6.85;;
20697;SDS011;10508;50.956;4.640;2024-01-15T04:52:16;18.50;;;6.78;;
20697;SDS011;10508;50.956;4.640;2024-01-15T04:54:42;19.58;;;7.65;;
20697;SDS011;10508;50.956;4.640;2024-01-15T04:57:08;20.67;;;7.32;;
20697;SDS011;10508;50.956;4.640;2024-01-15T04:59:33;20.08;;;7.40;;
20697;SDS011;10508;50.956;4.640;2024-01-15T05:02:04;20.40;;;8.48;;
20697;SDS011;10508;50.956;4.640;2024-01-15T05:04:30;15.35;;;6.68;;
20697;SDS011;10508;50.956;4.640;2024-01-15T05:06:55;20.00;;;7.80;;
20697;SDS011;10508;50.956;4.640;2024-01-15T05:09:21;20.05;;;8.00;;
20697;SDS011;10508;50.956;4.640;2024-01-15T05:11:47;18.77;;;6.70;;
20697;SDS011;10508;50.956;4.640;2024-01-15T05:14:12;24.27;;;9.68;;
20697;SDS011;10508;50.956;4.640;2024-01-15T05:16:39;24.67;;;9.18;;
20697;SDS011;10508;50.956;4.640;2024-01-15T05:19:11;22.55;;;7.03;;
20697;SDS011;10508;50.956;4.640;2024-01-15T05:21:37;18.10;;;7.18;;
20697;SDS011;10508;50.956;4.640;2024-01-15T05:24:02;19.35;;;7.75;;
20697;SDS011;10508;50.956;4.640;2024-01-15T05:26:28;20.42;;;6.63;;
20697;SDS011;10508;50.956;4.640;2024-01-15T05:28:54;16.42;;;6.85;;
20697;SDS011;10508;50.956;4.640;2024-01-15T05:31:19;17.60;;;6.55;;
20697;SDS011;10508;50.956;4.640;2024-01-15T05:33:45;17.23;;;6.07;;
20697;SDS011;10508;50.956;4.640;2024-01-15T05:36:11;15.73;;;5.50;;
20697;SDS011;10508;50.956;4.640;2024-01-15T05:38:36;13.75;;;5.05;;
20697;SDS011;10508;50.956;4.640;2024-01-15T05:41:02;10.63;;;4.90;;
20697;SDS011;10508;50.956;4.640;2024-01-15T05:43:47;13.55;;;5.05;;
20697;SDS011;10508;50.956;4.640;2024-01-15T05:46:12;13.45;;;5.45;;
20697;SDS011;10508;50.956;4.640;2024-01-15T05:48:39;19.38;;;4.95;;
20697;SDS011;10508;50.956;4.640;2024-01-15T05:51:04;11.02;;;4.97;;
20697;SDS011;10508;50.956;4.640;2024-01-15T05:53:30;11.70;;;4.40;;
20697;SDS011;10508;50.956;4.640;2024-01-15T05:55:56;10.70;;;4.47;;
20697;SDS011;10508;50.956;4.640;2024-01-15T05:58:22;9.93;;;3.92;;
20697;SDS011;10508;50.956;4.640;2024-01-15T06:00:47;7.53;;;3.25;;
20697;SDS011;10508;50.956;4.640;2024-01-15T06:03:15;13.98;;;4.03;;
20697;SDS011;10508;50.956;4.640;2024-01-15T06:05:40;8.10;;;3.53;;
20697;SDS011;10508;50.956;4.640;2024-01-15T06:08:06;6.82;;;2.60;;
20697;SDS011;10508;50.956;4.640;2024-01-15T06:10:32;7.45;;;3.22;;
20697;SDS011;10508;50.956;4.640;2024-01-15T06:12:57;9.98;;;3.22;;
20697;SDS011;10508;50.956;4.640;2024-01-15T06:15:23;9.23;;;2.92;;
20697;SDS011;10508;50.956;4.640;2024-01-15T06:17:49;5.55;;;2.13;;
20697;SDS011;10508;50.956;4.640;2024-01-15T06:20:14;7.40;;;2.63;;
20697;SDS011;10508;50.956;4.640;2024-01-15T06:22:40;6.68;;;2.15;;
20697;SDS011;10508;50.956;4.640;2024-01-15T06:25:07;6.00;;;2.60;;
20697;SDS011;10508;50.956;4.640;2024-01-15T06:27:33;7.93;;;2.28;;
20697;SDS011;10508;50.956;4.640;2024-01-15T06:29:59;9.40;;;2.03;;
20697;SDS011;10508;50.956;4.640;2024-01-15T06:32:24;5.78;;;2.28;;
20697;SDS011;10508;50.956;4.640;2024-01-15T06:34:50;5.07;;;1.80;;
20697;SDS011;10508;50.956;4.640;2024-01-15T06:37:16;14.70;;;2.25;;
20697;SDS011;10508;50.956;4.640;2024-01-15T06:39:44;6.28;;;1.95;;
20697;SDS011;10508;50.956;4.640;2024-01-15T06:42:09;2.80;;;1.60;;
20697;SDS011;10508;50.956;4.640;2024-01-15T06:44:35;8.93;;;2.33;;
20697;SDS011;10508;50.956;4.640;2024-01-15T06:47:00;5.90;;;1.40;;
20697;SDS011;10508;50.956;4.640;2024-01-15T06:49:30;2.78;;;1.20;;
20697;SDS011;10508;50.956;4.640;2024-01-15T06:51:56;5.28;;;1.50;;
20697;SDS011;10508;50.956;4.640;2024-01-15T06:54:22;5.13;;;1.27;;
20697;SDS011;10508;50.956;4.640;2024-01-15T06:56:48;2.65;;;1.20;;
20697;SDS011;10508;50.956;4.640;2024-01-15T06:59:14;14.68;;;1.70;;
20697;SDS011;10508;50.956;4.640;2024-01-15T07:01:40;5.50;;;1.27;;
20697;SDS011;10508;50.956;4.640;2024-01-15T07:04:06;5.03;;;1.42;;
20697;SDS011;10508;50.956;4.640;2024-01-15T07:06:32;5.03;;;1.65;;
20697;SDS011;10508;50.956;4.640;2024-01-15T07:08:58;2.60;;;1.10;;
20697;SDS011;10508;50.956;4.640;2024-01-15T07:11:23;6.95;;;1.40;;
20697;SDS011;10508;50.956;4.640;2024-01-15T07:13:49;6.40;;;1.05;;
20697;SDS011;10508;50.956;4.640;2024-01-15T07:16:15;5.95;;;1.40;;
20697;SDS011;10508;50.956;4.640;2024-01-15T07:18:40;5.85;;;1.02;;
20697;SDS011;10508;50.956;4.640;2024-01-15T07:21:06;2.10;;;0.90;;
20697;SDS011;10508;50.956;4.640;2024-01-15T07:23:32;4.03;;;0.82;;
20697;SDS011;10508;50.956;4.640;2024-01-15T07:25:57;5.97;;;1.02;;
20697;SDS011;10508;50.956;4.640;2024-01-15T07:28:23;3.78;;;1.00;;
20697;SDS011;10508;50.956;4.640;2024-01-15T07:30:49;4.43;;;1.77;;
20697;SDS011;10508;50.956;4.640;2024-01-15T07:33:15;6.13;;;1.13;;
20697;SDS011;10508;50.956;4.640;2024-01-15T07:35:41;4.38;;;0.80;;
20697;SDS011;10508;50.956;4.640;2024-01-15T07:38:06;2.45;;;1.05;;
20697;SDS011;10508;50.956;4.640;2024-01-15T07:40:32;4.75;;;1.42;;
20697;SDS011;10508;50.956;4.640;2024-01-15T07:42:58;5.80;;;1.10;;
20697;SDS011;10508;50.956;4.640;2024-01-15T07:45:23;6.60;;;2.13;;
20697;SDS011;10508;50.956;4.640;2024-01-15T07:47:49;4.93;;;1.30;;
20697;SDS011;10508;50.956;4.640;2024-01-15T07:50:15;9.18;;;1.48;;
20697;SDS011;10508;50.956;4.640;2024-01-15T07:52:40;2.40;;;1.00;;
20697;SDS011;10508;50.956;4.640;2024-01-15T07:55:09;11.25;;;1.35;;
20697;SDS011;10508;50.956;4.640;2024-01-15T07:57:35;4.30;;;0.95;;
20697;SDS011;10508;50.956;4.640;2024-01-15T08:00:03;10.40;;;1.25;;
20697;SDS011;10508;50.956;4.640;2024-01-15T08:02:30;5.65;;;1.63;;
20697;SDS011;10508;50.956;4.640;2024-01-15T08:04:57;4.53;;;1.48;;
20697;SDS011;10508;50.956;4.640;2024-01-15T08:07:23;6.00;;;1.20;;
20697;SDS011;10508;50.956;4.640;2024-01-15T08:09:50;12.50;;;1.58;;
20697;SDS011;10508;50.956;4.640;2024-01-15T08:12:17;3.42;;;0.82;;
20697;SDS011;10508;50.956;4.640;2024-01-15T08:14:42;3.53;;;1.27;;
20697;SDS011;10508;50.956;4.640;2024-01-15T08:17:08;4.75;;;1.33;;
20697;SDS011;10508;50.956;4.640;2024-01-15T08:19:37;5.20;;;1.58;;
20697;SDS011;10508;50.956;4.640;2024-01-15T08:22:04;5.28;;;1.60;;
20697;SDS011;10508;50.956;4.640;2024-01-15T08:24:29;7.90;;;1.05;;
20697;SDS011;10508;50.956;4.640;2024-01-15T08:26:56;6.93;;;1.98;;
20697;SDS011;10508;50.956;4.640;2024-01-15T08:29:22;5.30;;;1.48;;
20697;SDS011;10508;50.956;4.640;2024-01-15T08:31:49;4.10;;;1.17;;
20697;SDS011;10508;50.956;4.640;2024-01-15T08:34:15;5.55;;;1.50;;
20697;SDS011;10508;50.956;4.640;2024-01-15T08:36:41;8.98;;;1.27;;
20697;SDS011;10508;50.956;4.640;2024-01-15T08:39:07;15.63;;;1.40;;
20697;SDS011;10508;50.956;4.640;2024-01-15T08:41:34;4.07;;;1.55;;
20697;SDS011;10508;50.956;4.640;2024-01-15T08:43:59;5.75;;;1.38;;
20697;SDS011;10508;50.956;4.640;2024-01-15T08:46:25;5.05;;;1.58;;
20697;SDS011;10508;50.956;4.640;2024-01-15T08:48:51;3.45;;;1.30;;
20697;SDS011;10508;50.956;4.640;2024-01-15T08:51:17;4.63;;;1.00;;
20697;SDS011;10508;50.956;4.640;2024-01-15T08:53:43;9.00;;;1.30;;
20697;SDS011;10508;50.956;4.640;2024-01-15T08:56:09;5.28;;;1.40;;
20697;SDS011;10508;50.956;4.640;2024-01-15T08:58:35;5.32;;;2.15;;
20697;SDS011;10508;50.956;4.640;2024-01-15T09:01:01;3.80;;;0.98;;
20697;SDS011;10508;50.956;4.640;2024-01-15T09:03:27;6.03;;;1.42;;
20697;SDS011;10508;50.956;4.640;2024-01-15T09:05:52;6.18;;;1.50;;
20697;SDS011;10508;50.956;4.640;2024-01-15T09:08:19;5.90;;;1.30;;
20697;SDS011;10508;50.956;4.640;2024-01-15T09:10:45;7.05;;;1.55;;
20697;SDS011;10508;50.956;4.640;2024-01-15T09:13:11;5.63;;;1.25;;
20697;SDS011;10508;50.956;4.640;2024-01-15T09:15:36;7.32;;;1.27;;
20697;SDS011;10508;50.956;4.640;2024-01-15T09:18:02;6.50;;;1.30;;
20697;SDS011;10508;50.956;4.640;2024-01-15T09:20:28;2.83;;;1.00;;
20697;SDS011;10508;50.956;4.640;2024-01-15T09:22:54;3.78;;;1.13;;
20697;SDS011;10508;50.956;4.640;2024-01-15T09:25:19;3.95;;;1.25;;
20697;SDS011;10508;50.956;4.640;2024-01-15T09:27:45;3.17;;;1.13;;
20697;SDS011;10508;50.956;4.640;2024-01-15T09:30:11;3.65;;;1.20;;
20697;SDS011;10508;50.956;4.640;2024-01-15T09:32:37;4.82;;;0.90;;
20697;SDS011;10508;50.956;4.640;2024-01-15T09:35:03;8.40;;;2.00;;
20697;SDS011;10508;50.956;4.640;2024-01-15T09:37:29;8.57;;;1.55;;
20697;SDS011;10508;50.956;4.640;2024-01-15T09:39:54;8.27;;;1.40;;
20697;SDS011;10508;50.956;4.640;2024-01-15T09:42:21;5.15;;;1.35;;
20697;SDS011;10508;50.956;4.640;2024-01-15T09:44:49;9.45;;;1.38;;
20697;SDS011;10508;50.956;4.640;2024-01-15T09:47:16;12.18;;;1.55;;
20697;SDS011;10508;50.956;4.640;2024-01-15T09:49:43;9.10;;;1.40;;
20697;SDS011;10508;50.956;4.640;2024-01-15T09:52:10;4.07;;;1.17;;
20697;SDS011;10508;50.956;4.640;2024-01-15T09:54:36;6.78;;;1.17;;
20697;SDS011;10508;50.956;4.640;2024-01-15T09:57:04;6.43;;;1.42;;
20697;SDS011;10508;50.956;4.640;2024-01-15T09:59:30;7.80;;;1.50;;
20697;SDS011;10508;50.956;4.640;2024-01-15T10:01:57;5.22;;;1.27;;
20697;SDS011;10508;50.956;4.640;2024-01-15T10:04:25;5.70;;;0.93;;
20697;SDS011;10508;50.956;4.640;2024-01-15T10:06:50;6.97;;;1.45;;
20697;SDS011;10508;50.956;4.640;2024-01-15T10:09:17;3.55;;;1.27;;
20697;SDS011;10508;50.956;4.640;2024-01-15T10:11:43;5.07;;;1.75;;
20697;SDS011;10508;50.956;4.640;2024-01-15T10:14:12;13.05;;;1.50;;
20697;SDS011;10508;50.956;4.640;2024-01-15T10:16:41;6.78;;;1.40;;
20697;SDS011;10508;50.956;4.640;2024-01-15T10:19:10;7.53;;;1.45;;
20697;SDS011;10508;50.956;4.640;2024-01-15T10:21:54;5.05;;;1.20;;
20697;SDS011;10508;50.956;4.640;2024-01-15T10:24:20;8.05;;;1.55;;
20697;SDS011;10508;50.956;4.640;2024-01-15T10:26:46;2.75;;;1.10;;
20697;SDS011;10508;50.956;4.640;2024-01-15T10:29:12;8.90;;;1.25;;
20697;SDS011;10508;50.956;4.640;2024-01-15T10:31:40;7.60;;;1.05;;
20697;SDS011;10508;50.956;4.640;2024-01-15T10:34:10;10.63;;;1.48;;
20697;SDS011;10508;50.956;4.640;2024-01-15T10:36:39;4.47;;;1.00;;
20697;SDS011;10508;50.956;4.640;2024-01-15T10:39:06;8.30;;;1.92;;
20697;SDS011;10508;50.956;4.640;2024-01-15T10:41:32;9.02;;;1.60;;
20697;SDS011;10508;50.956;4.640;2024-01-15T10:43:58;9.80;;;1.98;;
20697;SDS011;10508;50.956;4.640;2024-01-15T10:46:24;7.88;;;1.45;;
20697;SDS011;10508;50.956;4.640;2024-01-15T10:48:50;7.32;;;1.52;;
20697;SDS011;10508;50.956;4.640;2024-01-15T10:51:16;13.38;;;1.60;;
20697;SDS011;10508;50.956;4.640;2024-01-15T10:53:43;7.18;;;1.00;;
20697;SDS011;10508;50.956;4.640;2024-01-15T10:56:10;7.72;;;1.48;;
20697;SDS011;10508;50.956;4.640;2024-01-15T10:58:38;6.80;;;1.05;;
20697;SDS011;10508;50.956;4.640;2024-01-15T11:01:05;4.05;;;0.93;;
20697;SDS011;10508;50.956;4.640;2024-01-15T11:03:31;6.57;;;1.23;;
20697;SDS011;10508;50.956;4.640;2024-01-15T11:05:57;11.07;;;1.63;;
20697;SDS011;10508;50.956;4.640;2024-01-15T11:08:24;3.92;;;1.20;;
20697;SDS011;10508;50.956;4.640;2024-01-15T11:10:50;11.63;;;1.80;;
20697;SDS011;10508;50.956;4.640;2024-01-15T11:18:37;7.50;;;1.20;;
20697;SDS011;10508;50.956;4.640;2024-01-15T11:23:45;8.45;;;1.10;;
20697;SDS011;10508;50.956;4.640;2024-01-15T11:32:15;3.90;;;1.15;;
20697;SDS011;10508;50.956;4.640;2024-01-15T11:37:24;10.18;;;1.38;;
20697;SDS011;10508;50.956;4.640;2024-01-15T11:39:54;6.05;;;0.90;;
20697;SDS011;10508;50.956;4.640;2024-01-15T11:42:21;7.03;;;0.90;;
20697;SDS011;10508;50.956;4.640;2024-01-15T11:44:48;2.78;;;1.00;;
20697;SDS011;10508;50.956;4.640;2024-01-15T11:47:14;12.55;;;1.35;;
20697;SDS011;10508;50.956;4.640;2024-01-15T11:49:59;12.25;;;1.33;;
20697;SDS011;10508;50.956;4.640;2024-01-15T11:52:58;8.93;;;1.15;;
20697;SDS011;10508;50.956;4.640;2024-01-15T11:55:26;6.53;;;1.30;;
20697;SDS011;10508;50.956;4.640;2024-01-15T11:58:00;8.98;;;1.77;;
20697;SDS011;10508;50.956;4.640;2024-01-15T12:00:27;3.92;;;1.05;;
20697;SDS011;10508;50.956;4.640;2024-01-15T12:02:53;9.60;;;1.75;;
20697;SDS011;10508;50.956;4.640;2024-01-15T12:05:19;4.45;;;0.77;;
20697;SDS011;10508;50.956;4.640;2024-01-15T12:07:49;3.88;;;0.88;;
20697;SDS011;10508;50.956;4.640;2024-01-15T12:15:29;10.20;;;0.93;;
20697;SDS011;10508;50.956;4.640;2024-01-15T12:17:58;6.70;;;1.02;;
20697;SDS011;10508;50.956;4.640;2024-01-15T12:20:28;7.57;;;1.20;;
20697;SDS011;10508;50.956;4.640;2024-01-15T12:22:55;6.45;;;0.85;;
20697;SDS011;10508;50.956;4.640;2024-01-15T12:25:24;5.93;;;0.98;;
20697;SDS011;10508;50.956;4.640;2024-01-15T12:27:52;7.05;;;1.17;;
20697;SDS011;10508;50.956;4.640;2024-01-15T12:30:18;4.25;;;0.68;;
20697;SDS011;10508;50.956;4.640;2024-01-15T12:32:44;10.07;;;0.85;;
20697;SDS011;10508;50.956;4.640;2024-01-15T12:35:12;7.35;;;1.30;;
20697;SDS011;10508;50.956;4.640;2024-01-15T12:37:39;3.53;;;0.75;;
20697;SDS011;10508;50.956;4.640;2024-01-15T12:40:09;8.77;;;1.60;;
20697;SDS011;10508;50.956;4.640;2024-01-15T12:42:36;11.32;;;1.25;;
20697;SDS011;10508;50.956;4.640;2024-01-15T12:45:02;5.00;;;1.05;;
20697;SDS011;10508;50.956;4.640;2024-01-15T12:47:30;12.13;;;1.33;;
20697;SDS011;10508;50.956;4.640;2024-01-15T12:49:57;6.50;;;0.85;;
20697;SDS011;10508;50.956;4.640;2024-01-15T12:52:26;2.20;;;0.65;;
20697;SDS011;10508;50.956;4.640;2024-01-15T12:54:52;2.80;;;0.50;;
20697;SDS011;10508;50.956;4.640;2024-01-15T12:57:18;5.85;;;0.90;;
20697;SDS011;10508;50.956;4.640;2024-01-15T12:59:44;4.15;;;1.00;;
20697;SDS011;10508;50.956;4.640;2024-01-15T13:02:11;17.17;;;2.90;;
20697;SDS011;10508;50.956;4.640;2024-01-15T13:04:38;4.88;;;0.60;;
20697;SDS011;10508;50.956;4.640;2024-01-15T13:07:05;3.33;;;0.30;;
20697;SDS011;10508;50.956;4.640;2024-01-15T13:09:32;2.85;;;0.85;;
20697;SDS011;10508;50.956;4.640;2024-01-15T13:11:58;4.43;;;1.67;;
20697;SDS011;10508;50.956;4.640;2024-01-15T13:14:24;6.85;;;0.82;;
20697;SDS011;10508;50.956;4.640;2024-01-15T13:16:50;5.43;;;1.10;;
20697;SDS011;10508;50.956;4.640;2024-01-15T13:19:16;4.18;;;0.85;;
20697;SDS011;10508;50.956;4.640;2024-01-15T13:21:42;5.40;;;1.10;;
20697;SDS011;10508;50.956;4.640;2024-01-15T13:24:08;1.65;;;0.77;;
20697;SDS011;10508;50.956;4.640;2024-01-15T13:26:34;1.73;;;0.82;;
20697;SDS011;10508;50.956;4.640;2024-01-15T13:29:02;1.90;;;0.60;;
20697;SDS011;10508;50.956;4.640;2024-01-15T13:31:29;3.38;;;1.00;;
20697;SDS011;10508;50.956;4.640;2024-01-15T13:33:55;2.25;;;0.68;;
20697;SDS011;10508;50.956;4.640;2024-01-15T13:36:21;3.35;;;1.00;;
20697;SDS011;10508;50.956;4.640;2024-01-15T13:38:48;2.15;;;0.82;;
20697;SDS011;10508;50.956;4.640;2024-01-15T13:41:15;7.30;;;0.98;;
20697;SDS011;10508;50.956;4.640;2024-01-15T13:43:43;1.08;;;0.73;;
20697;SDS011;10508;50.956;4.640;2024-01-15T13:46:11;2.55;;;0.75;;
20697;SDS011;10508;50.956;4.640;2024-01-15T13:48:36;2.28;;;0.63;;
20697;SDS011;10508;50.956;4.640;2024-01-15T13:51:02;5.00;;;1.00;;
20697;SDS011;10508;50.956;4.640;2024-01-15T13:53:29;2.33;;;0.60;;
20697;SDS011;10508;50.956;4.640;2024-01-15T13:55:54;1.13;;;0.40;;
20697;SDS011;10508;50.956;4.640;2024-01-15T13:58:21;2.90;;;0.50;;
20697;SDS011;10508;50.956;4.640;2024-01-15T14:00:47;4.38;;;0.65;;
20697;SDS011;10508;50.956;4.640;2024-01-15T14:03:13;0.80;;;0.40;;
20697;SDS011;10508;50.956;4.640;2024-01-15T14:05:40;5.20;;;0.68;;
20697;SDS011;10508;50.956;4.640;2024-01-15T14:08:05;3.60;;;0.60;;
20697;SDS011;10508;50.956;4.640;2024-01-15T14:10:33;0.50;;;0.30;;
20697;SDS011;10508;50.956;4.640;2024-01-15T14:12:59;2.97;;;0.63;;
20697;SDS011;10508;50.956;4.640;2024-01-15T14:15:25;1.75;;;0.70;;
20697;SDS011;10508;50.956;4.640;2024-01-15T14:17:52;6.57;;;0.82;;
20697;SDS011;10508;50.956;4.640;2024-01-15T14:20:18;10.77;;;0.70;;
20697;SDS011;10508;50.956;4.640;2024-01-15T14:22:44;0.55;;;0.43;;
20697;SDS011;10508;50.956;4.640;2024-01-15T14:25:10;5.40;;;1.17;;
20697;SDS011;10508;50.956;4.640;2024-01-15T14:27:36;4.60;;;0.90;;
20697;SDS011;10508;50.956;4.640;2024-01-15T14:30:03;9.75;;;1.08;;
20697;SDS011;10508;50.956;4.640;2024-01-15T14:32:30;3.70;;;0.82;;
20697;SDS011;10508;50.956;4.640;2024-01-15T14:34:56;1.77;;;0.50;;
20697;SDS011;10508;50.956;4.640;2024-01-15T14:37:22;2.97;;;0.55;;
20697;SDS011;10508;50.956;4.640;2024-01-15T14:39:47;4.82;;;0.68;;
20697;SDS011;10508;50.956;4.640;2024-01-15T14:42:13;1.58;;;0.70;;
20697;SDS011;10508;50.956;4.640;2024-01-15T14:44:39;3.35;;;1.33;;
20697;SDS011;10508;50.956;4.640;2024-01-15T14:47:06;4.15;;;0.80;;
20697;SDS011;10508;50.956;4.640;2024-01-15T14:49:33;4.65;;;0.80;;
20697;SDS011;10508;50.956;4.640;2024-01-15T14:51:59;2.67;;;0.60;;
20697;SDS011;10508;50.956;4.640;2024-01-15T14:54:25;3.30;;;0.77;;
20697;SDS011;10508;50.956;4.640;2024-01-15T14:56:51;4.13;;;0.95;;
20697;SDS011;10508;50.956;4.640;2024-01-15T14:59:17;1.38;;;0.70;;
20697;SDS011;10508;50.956;4.640;2024-01-15T15:01:43;5.90;;;1.33;;